createdAt,value
2022-11-04T00:01:58.270Z,16.38
2022-11-04T00:04:27.309Z,16.65
2022-11-04T00:06:54.613Z,11.77
2022-11-04T00:09:27.359Z,12.07
2022-11-04T00:12:13.134Z,11.15
2022-11-04T00:14:40.077Z,14.68
2022-11-04T00:17:19.664Z,12.50
2022-11-04T00:20:06.779Z,13.10
2022-11-04T00:22:52.282Z,12.48
2022-11-04T00:25:37.886Z,18.98
2022-11-04T00:28:33.713Z,17.30
2022-11-04T00:31:22.166Z,18.67
2022-11-04T00:33:49.847Z,17.80
2022-11-04T00:36:17.101Z,15.77
2022-11-04T00:38:43.796Z,12.48
2022-11-04T00:41:29.051Z,13.25
2022-11-04T00:43:58.108Z,11.80
2022-11-04T00:46:24.969Z,10.95
2022-11-04T00:48:51.671Z,12.18
2022-11-04T00:51:18.388Z,13.85
2022-11-04T00:53:45.443Z,13.85
2022-11-04T00:56:12.099Z,12.95
2022-11-04T00:58:38.704Z,11.25
2022-11-04T01:01:17.804Z,13.95
2022-11-04T01:03:49.000Z,13.40
2022-11-04T01:06:16.214Z,12.38
2022-11-04T01:08:43.099Z,14.38
2022-11-04T01:11:10.448Z,12.23
2022-11-04T01:13:38.368Z,12.30
2022-11-04T01:16:08.327Z,14.98
2022-11-04T01:18:36.113Z,17.55
2022-11-04T01:21:06.944Z,16.00
2022-11-04T01:23:36.996Z,12.43
2022-11-04T01:26:14.729Z,11.32
2022-11-04T01:28:41.771Z,14.48
2022-11-04T01:31:17.649Z,14.90
2022-11-04T01:33:44.685Z,15.25
2022-11-04T01:36:11.596Z,14.75
2022-11-04T01:38:38.336Z,13.20
2022-11-04T01:41:06.445Z,18.58
2022-11-04T01:43:52.950Z,15.30
2022-11-04T01:46:19.528Z,12.25
2022-11-04T01:48:46.514Z,12.93
2022-11-04T01:51:14.218Z,12.95
2022-11-04T01:53:43.097Z,14.07
2022-11-04T01:56:12.826Z,18.77
2022-11-04T01:58:44.116Z,18.05
2022-11-04T02:01:12.642Z,21.40
2022-11-04T02:03:48.677Z,14.00
2022-11-04T02:06:17.037Z,16.02
2022-11-04T02:08:44.227Z,17.42
2022-11-04T02:11:11.615Z,14.02
2022-11-04T02:13:38.255Z,13.45
2022-11-04T02:16:15.480Z,15.93
2022-11-04T02:18:53.860Z,14.10
2022-11-04T02:21:57.392Z,23.38
2022-11-04T02:24:54.191Z,13.80
2022-11-04T02:27:39.949Z,17.38
2022-11-04T02:30:19.840Z,19.48
2022-11-04T02:33:12.652Z,21.50
2022-11-04T02:35:57.384Z,13.73
2022-11-04T02:38:31.291Z,23.20
2022-11-04T02:41:06.943Z,17.63
2022-11-04T02:43:39.568Z,16.08
2022-11-04T02:46:21.405Z,19.83
2022-11-04T02:48:55.528Z,17.80
2022-11-04T02:51:37.442Z,21.00
2022-11-04T02:54:06.159Z,24.90
2022-11-04T02:56:38.738Z,22.60
2022-11-04T02:59:10.993Z,21.40
2022-11-04T03:01:41.763Z,24.45
2022-11-04T03:04:17.356Z,21.52
2022-11-04T03:06:49.050Z,29.50
2022-11-04T03:09:16.973Z,23.90
2022-11-04T03:11:48.078Z,35.13
2022-11-04T03:14:20.374Z,26.10
2022-11-04T03:16:53.832Z,29.75
2022-11-04T03:19:41.775Z,21.77
2022-11-04T03:22:13.766Z,20.67
2022-11-04T03:24:42.423Z,23.23
2022-11-04T03:27:27.160Z,20.42
2022-11-04T03:30:11.719Z,23.92
2022-11-04T03:32:59.134Z,31.15
2022-11-04T03:35:27.858Z,28.27
2022-11-04T03:37:55.308Z,40.67
2022-11-04T03:40:22.374Z,23.15
2022-11-04T03:42:57.364Z,25.80
2022-11-04T03:45:24.448Z,23.42
2022-11-04T03:47:52.120Z,26.25
2022-11-04T03:50:31.030Z,23.92
2022-11-04T03:52:59.101Z,27.85
2022-11-04T03:55:39.245Z,19.38
2022-11-04T03:58:27.103Z,21.70
2022-11-04T04:01:04.891Z,31.40
2022-11-04T04:03:40.914Z,26.25
2022-11-04T04:06:18.452Z,25.02
2022-11-04T04:09:00.989Z,24.55
2022-11-04T04:11:33.295Z,24.70
2022-11-04T04:14:08.390Z,20.38
2022-11-04T04:16:43.423Z,29.02
2022-11-04T04:19:24.103Z,25.02
2022-11-04T04:22:07.413Z,20.75
2022-11-04T04:24:57.270Z,19.50
2022-11-04T04:27:33.177Z,24.85
2022-11-04T04:30:12.255Z,19.70
2022-11-04T04:32:46.127Z,24.42
2022-11-04T04:35:32.704Z,28.13
2022-11-04T04:38:21.703Z,24.15
2022-11-04T04:41:15.930Z,24.10
2022-11-04T04:44:01.898Z,20.75
2022-11-04T04:46:32.275Z,20.90
2022-11-04T04:49:09.470Z,21.52
2022-11-04T04:51:39.835Z,20.88
2022-11-04T04:54:06.904Z,22.95
2022-11-04T04:56:33.562Z,28.65
2022-11-04T04:59:00.240Z,29.30
2022-11-04T05:01:27.013Z,24.15
2022-11-04T05:03:53.776Z,33.60
2022-11-04T05:06:20.482Z,22.88
2022-11-04T05:08:47.119Z,22.02
2022-11-04T05:11:13.864Z,26.88
2022-11-04T05:13:40.537Z,23.38
2022-11-04T05:16:10.356Z,27.15
2022-11-04T05:18:37.715Z,27.63
2022-11-04T05:21:10.545Z,25.75
2022-11-04T05:23:37.405Z,24.90
2022-11-04T05:26:04.568Z,23.92
2022-11-04T05:28:31.814Z,28.80
2022-11-04T05:30:58.505Z,20.50
2022-11-04T05:33:25.135Z,23.08
2022-11-04T05:35:51.798Z,21.13
2022-11-04T05:38:18.462Z,27.48
2022-11-04T05:40:45.146Z,23.35
2022-11-04T05:43:11.947Z,21.50
2022-11-04T05:45:38.697Z,30.65
2022-11-04T05:48:05.909Z,20.05
2022-11-04T05:50:33.499Z,22.00
2022-11-04T05:53:01.352Z,25.83
2022-11-04T05:55:28.635Z,25.23
2022-11-04T05:57:55.503Z,24.15
2022-11-04T06:00:22.275Z,21.45
2022-11-04T06:02:49.198Z,20.83
2022-11-04T06:05:15.934Z,22.25
2022-11-04T06:07:42.568Z,26.50
2022-11-04T06:10:09.604Z,24.75
2022-11-04T06:12:36.280Z,25.45
2022-11-04T06:15:03.141Z,20.40
2022-11-04T06:17:29.819Z,22.00
2022-11-04T06:19:56.466Z,21.08
2022-11-04T06:22:23.746Z,21.48
2022-11-04T06:24:50.703Z,22.80
2022-11-04T06:27:17.788Z,19.88
2022-11-04T06:29:44.486Z,21.48
2022-11-04T06:32:14.305Z,18.42
2022-11-04T06:34:41.311Z,20.77
2022-11-04T06:37:08.301Z,29.55
2022-11-04T06:39:34.872Z,19.33
2022-11-04T06:42:02.961Z,20.15
2022-11-04T06:44:30.158Z,24.02
2022-11-04T06:46:56.820Z,21.70
2022-11-04T06:49:23.650Z,19.30
2022-11-04T06:51:50.393Z,21.08
2022-11-04T06:54:17.699Z,19.52
2022-11-04T06:56:45.560Z,16.73
2022-11-04T06:59:18.016Z,16.70
2022-11-04T07:01:45.327Z,19.80
2022-11-04T07:04:12.056Z,16.75
2022-11-04T07:06:44.067Z,22.40
2022-11-04T07:09:13.424Z,16.63
2022-11-04T07:11:40.914Z,17.77
2022-11-04T07:14:09.084Z,20.08
2022-11-04T07:16:36.107Z,22.08
2022-11-04T07:19:03.270Z,20.33
2022-11-04T07:21:30.286Z,17.08
2022-11-04T07:23:57.006Z,15.57
2022-11-04T07:26:23.699Z,14.93
2022-11-04T07:28:51.004Z,16.15
2022-11-04T07:31:18.654Z,15.80
2022-11-04T07:33:50.171Z,16.13
2022-11-04T07:36:17.585Z,18.20
2022-11-04T07:38:45.383Z,16.42
2022-11-04T07:41:12.863Z,13.30
2022-11-04T07:43:39.524Z,13.48
2022-11-04T07:46:14.724Z,16.40
2022-11-04T07:48:41.413Z,24.17
2022-11-04T07:51:09.949Z,12.20
2022-11-04T07:53:36.907Z,12.65
2022-11-04T07:56:08.474Z,14.95
2022-11-04T07:58:35.293Z,18.35
2022-11-04T08:01:05.612Z,12.43
2022-11-04T08:03:32.998Z,13.98
2022-11-04T08:06:01.407Z,19.77
2022-11-04T08:08:28.817Z,13.38
2022-11-04T08:11:01.213Z,13.13
2022-11-04T08:13:29.446Z,14.13
2022-11-04T08:15:57.178Z,17.02
2022-11-04T08:18:24.002Z,12.88
2022-11-04T08:20:52.032Z,19.70
2022-11-04T08:23:18.927Z,15.60
2022-11-04T08:25:46.187Z,13.10
2022-11-04T08:28:17.600Z,13.65
2022-11-04T08:31:04.401Z,12.93
2022-11-04T08:33:33.225Z,12.98
2022-11-04T08:36:02.966Z,15.73
2022-11-04T08:38:29.682Z,19.00
2022-11-04T08:41:00.995Z,20.33
2022-11-04T08:43:27.708Z,14.02
2022-11-04T08:45:54.469Z,16.63
2022-11-04T08:48:21.529Z,12.95
2022-11-04T08:50:56.825Z,14.32
2022-11-04T08:53:23.562Z,14.57
2022-11-04T08:55:51.076Z,13.10
2022-11-04T08:58:18.958Z,12.75
2022-11-04T09:00:45.799Z,12.35
2022-11-04T09:03:13.051Z,12.23
2022-11-04T09:05:45.024Z,9.75
2022-11-04T09:08:12.429Z,10.73
2022-11-04T09:10:46.155Z,9.60
2022-11-04T09:13:13.414Z,9.82
2022-11-04T09:15:40.183Z,13.52
2022-11-04T09:18:07.549Z,10.45
2022-11-04T09:20:35.190Z,9.60
2022-11-04T09:23:01.862Z,11.43
2022-11-04T09:25:28.707Z,14.20
2022-11-04T09:27:55.348Z,10.32
2022-11-04T09:30:22.082Z,13.93
2022-11-04T09:32:52.539Z,13.80
2022-11-04T09:35:19.797Z,10.75
2022-11-04T09:37:47.176Z,10.77
2022-11-04T09:40:17.278Z,10.02
2022-11-04T09:43:02.004Z,9.82
2022-11-04T09:45:31.485Z,9.77
2022-11-04T09:48:07.348Z,11.68
2022-11-04T09:50:49.419Z,11.05
2022-11-04T09:53:22.881Z,9.63
2022-11-04T09:56:02.876Z,9.27
2022-11-04T09:58:38.429Z,12.73
2022-11-04T10:01:40.589Z,9.65
2022-11-04T10:04:25.432Z,9.93
2022-11-04T10:07:19.108Z,11.15
2022-11-04T10:10:11.078Z,9.55
2022-11-04T10:13:02.918Z,9.93
2022-11-04T10:15:38.392Z,11.02
2022-11-04T10:18:23.908Z,9.40
2022-11-04T10:20:50.837Z,15.10
2022-11-04T10:23:28.231Z,17.17
2022-11-04T10:26:16.823Z,11.13
2022-11-04T10:28:54.996Z,10.52
2022-11-04T10:31:21.668Z,9.50
2022-11-04T10:33:56.607Z,8.75
2022-11-04T10:36:24.780Z,9.98
2022-11-04T10:38:56.805Z,8.63
2022-11-04T10:41:34.142Z,10.60
2022-11-04T10:44:09.186Z,10.77
2022-11-04T10:46:51.878Z,8.25
2022-11-04T10:49:37.157Z,8.85
2022-11-04T10:54:40.076Z,8.32
2022-11-04T10:57:06.986Z,8.85
2022-11-04T10:59:52.953Z,8.57
2022-11-04T11:02:40.420Z,11.88
2022-11-04T11:05:19.308Z,8.40
2022-11-04T11:07:49.492Z,9.55
2022-11-04T11:10:24.388Z,9.75
2022-11-04T11:15:32.778Z,10.57
2022-11-04T11:18:22.516Z,9.43
2022-11-04T11:20:52.348Z,15.85
2022-11-04T11:23:51.230Z,10.10
2022-11-04T11:26:35.958Z,13.30
2022-11-04T11:29:07.126Z,10.68
2022-11-04T11:31:39.314Z,13.82
2022-11-04T11:34:38.961Z,13.25
2022-11-04T11:37:22.105Z,12.40
2022-11-04T11:39:48.860Z,11.40
2022-11-04T11:42:16.476Z,12.27
2022-11-04T11:44:48.017Z,14.13
2022-11-04T11:47:29.581Z,11.75
2022-11-04T11:50:16.966Z,16.30
2022-11-04T11:52:45.837Z,16.33
2022-11-04T11:55:20.667Z,11.98
2022-11-04T12:00:54.662Z,11.98
2022-11-04T12:10:07.033Z,11.50
2022-11-04T12:12:45.868Z,12.07
2022-11-04T12:15:18.915Z,11.45
2022-11-04T12:18:19.226Z,10.95
2022-11-04T12:21:03.715Z,13.05
2022-11-04T12:23:55.009Z,11.95
2022-11-04T12:26:30.502Z,11.95
2022-11-04T12:29:10.505Z,16.63
2022-11-04T12:32:12.348Z,13.52
2022-11-04T12:34:52.627Z,16.20
2022-11-04T12:37:37.784Z,15.98
2022-11-04T12:42:49.267Z,13.63
2022-11-04T12:45:38.939Z,15.30
2022-11-04T12:48:12.708Z,12.27
2022-11-04T12:50:58.722Z,12.75
2022-11-04T12:53:56.983Z,16.23
2022-11-04T12:56:38.202Z,11.18
2022-11-04T12:59:24.739Z,10.38
2022-11-04T13:02:05.638Z,12.07
2022-11-04T13:04:40.247Z,11.50
2022-11-04T13:07:19.557Z,14.88
2022-11-04T13:10:05.363Z,12.80
2022-11-04T13:12:38.369Z,15.98
2022-11-04T13:15:17.210Z,10.00
2022-11-04T13:17:46.189Z,10.63
2022-11-04T13:20:15.381Z,10.63
2022-11-04T13:22:51.839Z,16.63
2022-11-04T13:25:30.500Z,9.88
2022-11-04T13:27:58.586Z,3.50
2022-11-04T13:31:07.866Z,1.23
2022-11-04T13:33:56.565Z,1.42
2022-11-04T13:36:23.758Z,2.03
2022-11-04T13:38:54.787Z,3.80
2022-11-04T13:41:30.719Z,7.55
2022-11-04T13:43:59.518Z,0.30
2022-11-04T13:46:31.753Z,3.03
2022-11-04T13:49:06.234Z,0.10
2022-11-04T13:51:35.885Z,11.43
2022-11-04T13:54:03.717Z,1.02
2022-11-04T13:56:38.459Z,0.10
2022-11-04T13:59:28.036Z,0.55
2022-11-04T14:02:19.816Z,0.73
2022-11-04T14:04:47.585Z,0.03
2022-11-04T14:07:17.989Z,1.88
2022-11-04T14:09:44.753Z,0.38
2022-11-04T14:12:11.495Z,0.17
2022-11-04T14:14:39.880Z,0.05
2022-11-04T14:17:35.662Z,0.10
2022-11-04T14:20:07.837Z,1.95
2022-11-04T14:22:43.277Z,5.22
2022-11-04T14:25:34.505Z,1.15
2022-11-04T14:28:10.060Z,6.00
2022-11-04T14:30:54.851Z,0.00
2022-11-04T14:33:42.095Z,0.17
2022-11-04T14:36:20.762Z,0.22
2022-11-04T14:38:59.706Z,1.00
2022-11-04T14:41:29.462Z,0.05
2022-11-04T14:44:00.504Z,0.08
2022-11-04T14:46:34.317Z,1.55
2022-11-04T14:49:02.316Z,0.85
2022-11-04T14:51:40.827Z,0.30
2022-11-04T14:54:21.940Z,4.22
2022-11-04T14:56:49.071Z,1.80
2022-11-04T14:59:24.202Z,1.27
2022-11-04T15:01:52.583Z,2.30
2022-11-04T15:04:29.520Z,0.10
2022-11-04T15:06:58.028Z,0.20
2022-11-04T15:09:28.589Z,6.35
2022-11-04T15:12:37.375Z,0.00
2022-11-04T15:15:28.761Z,0.00
2022-11-04T15:18:02.716Z,0.10
2022-11-04T15:20:31.348Z,0.10
2022-11-04T15:23:00.666Z,3.47
2022-11-04T15:25:28.104Z,2.05
2022-11-04T15:27:56.539Z,0.00
2022-11-04T15:30:26.558Z,1.50
2022-11-04T15:33:02.720Z,0.00
2022-11-04T15:35:33.872Z,0.10
2022-11-04T15:38:03.921Z,0.10
2022-11-04T15:40:34.478Z,0.32
2022-11-04T15:43:04.150Z,0.10
2022-11-04T15:45:33.842Z,0.10
2022-11-04T15:48:22.647Z,3.42
2022-11-04T15:51:08.460Z,3.90
2022-11-04T15:53:50.039Z,1.20
2022-11-04T15:56:21.238Z,2.80
2022-11-04T15:58:48.066Z,5.60
2022-11-04T16:01:17.268Z,6.53
2022-11-04T16:03:52.555Z,2.03
2022-11-04T16:06:33.789Z,0.20
2022-11-04T16:09:27.311Z,0.20
2022-11-04T16:12:12.868Z,1.40
2022-11-04T16:14:46.420Z,0.30
2022-11-04T16:17:13.117Z,3.78
2022-11-04T16:19:39.981Z,0.40
2022-11-04T16:22:09.866Z,2.72
2022-11-04T16:24:41.750Z,1.30
2022-11-04T16:27:10.942Z,0.30
2022-11-04T16:29:39.896Z,0.55
2022-11-04T16:32:15.434Z,2.92
2022-11-04T16:34:42.967Z,0.30
2022-11-04T16:37:09.870Z,0.20
2022-11-04T16:39:36.874Z,2.05
2022-11-04T16:42:04.905Z,6.60
2022-11-04T16:44:32.448Z,0.30
2022-11-04T16:47:00.264Z,0.32
2022-11-04T16:49:27.199Z,0.28
2022-11-04T16:51:56.745Z,0.70
2022-11-04T16:54:24.673Z,4.63
2022-11-04T16:56:51.505Z,1.13
2022-11-04T16:59:18.167Z,6.00
2022-11-04T17:01:45.036Z,2.95
2022-11-04T17:04:11.881Z,3.55
2022-11-04T17:06:39.318Z,5.18
2022-11-04T17:09:35.150Z,1.30
2022-11-04T17:12:01.861Z,0.90
2022-11-04T17:14:28.589Z,1.17
2022-11-04T17:16:57.265Z,1.00
2022-11-04T17:19:23.953Z,1.20
2022-11-04T17:21:50.627Z,1.17
2022-11-04T17:24:17.365Z,0.50
2022-11-04T17:26:44.020Z,5.13
2022-11-04T17:29:14.426Z,0.95
2022-11-04T17:31:43.845Z,0.10
2022-11-04T17:34:10.880Z,1.02
2022-11-04T17:36:37.740Z,0.68
2022-11-04T17:39:04.383Z,0.20
2022-11-04T17:41:49.513Z,1.55
2022-11-04T17:46:44.904Z,4.25
2022-11-04T17:49:17.551Z,1.10
2022-11-04T17:51:47.164Z,1.30
2022-11-04T17:54:14.153Z,2.38
2022-11-04T17:56:41.229Z,1.60
2022-11-04T17:59:09.705Z,0.30
2022-11-04T18:01:37.066Z,0.98
2022-11-04T18:04:03.962Z,23.45
2022-11-04T18:06:33.033Z,4.65
2022-11-04T18:09:00.143Z,28.40
2022-11-04T18:11:47.799Z,8.45
2022-11-04T18:14:16.974Z,3.72
2022-11-04T18:16:48.024Z,3.30
2022-11-04T18:19:16.483Z,1.65
2022-11-04T18:21:43.356Z,2.03
2022-11-04T18:24:10.456Z,1.50
2022-11-04T18:26:37.246Z,4.65
2022-11-04T18:29:04.589Z,1.42
2022-11-04T18:31:35.754Z,0.52
2022-11-04T18:34:05.317Z,0.40
2022-11-04T18:36:33.890Z,0.90
2022-11-04T18:39:01.683Z,2.17
2022-11-04T18:41:28.581Z,1.85
2022-11-04T18:43:55.278Z,1.13
2022-11-04T18:46:21.962Z,1.08
2022-11-04T18:48:50.600Z,0.60
2022-11-04T18:51:19.839Z,1.17
2022-11-04T18:53:46.804Z,0.38
2022-11-04T18:56:15.808Z,2.22
2022-11-04T18:58:42.627Z,1.25
2022-11-04T19:01:20.818Z,1.85
2022-11-04T19:03:48.666Z,2.33
2022-11-04T19:06:21.919Z,1.98
2022-11-04T19:08:50.626Z,2.28
2022-11-04T19:11:29.620Z,0.82
2022-11-04T19:13:58.907Z,2.45
2022-11-04T19:16:27.479Z,1.20
2022-11-04T19:18:54.995Z,0.82
2022-11-04T19:21:26.842Z,0.77
2022-11-04T19:23:54.224Z,0.30
2022-11-04T19:26:23.544Z,2.63
2022-11-04T19:28:50.930Z,1.42
2022-11-04T19:31:23.547Z,0.57
2022-11-04T19:33:50.924Z,0.43
2022-11-04T19:36:19.664Z,0.30
2022-11-04T19:38:46.387Z,0.30
2022-11-04T19:41:37.220Z,0.30
2022-11-04T19:44:07.068Z,1.10
2022-11-04T19:46:34.624Z,0.85
2022-11-04T19:49:01.754Z,0.52
2022-11-04T19:51:31.920Z,0.28
2022-11-04T19:53:58.967Z,2.45
2022-11-04T19:56:26.384Z,1.50
2022-11-04T19:58:53.034Z,1.35
2022-11-04T20:01:21.282Z,2.58
2022-11-04T20:03:48.164Z,5.10
2022-11-04T20:06:16.182Z,0.45
2022-11-04T20:08:44.624Z,2.10
2022-11-04T20:11:12.944Z,0.70
2022-11-04T20:13:49.586Z,0.70
2022-11-04T20:16:16.725Z,2.92
2022-11-04T20:18:44.924Z,2.25
2022-11-04T20:21:12.426Z,2.15
2022-11-04T20:23:39.443Z,1.40
2022-11-04T20:26:23.008Z,1.77
2022-11-04T20:28:50.424Z,2.83
2022-11-04T20:31:21.967Z,0.80
2022-11-04T20:33:49.984Z,0.65
2022-11-04T20:36:18.607Z,1.00
2022-11-04T20:38:48.547Z,0.60
2022-11-04T20:41:19.430Z,0.63
2022-11-04T20:43:47.828Z,0.40
2022-11-04T20:46:21.948Z,0.50
2022-11-04T20:48:49.128Z,1.55
2022-11-04T20:51:19.317Z,0.63
2022-11-04T20:53:46.468Z,0.57
2022-11-04T20:56:16.008Z,0.50
2022-11-04T20:58:44.330Z,0.60
2022-11-04T21:01:17.766Z,2.38
2022-11-04T21:03:44.989Z,1.20
2022-11-04T21:06:12.388Z,3.85
2022-11-04T21:08:39.749Z,1.05
2022-11-04T21:11:07.395Z,0.98
2022-11-04T21:13:34.707Z,0.45
2022-11-04T21:16:02.303Z,0.40
2022-11-04T21:18:29.402Z,0.30
2022-11-04T21:20:57.352Z,0.30
2022-11-04T21:23:24.305Z,0.38
2022-11-04T21:25:55.831Z,0.30
2022-11-04T21:28:23.301Z,0.40
2022-11-04T21:30:52.671Z,1.00
2022-11-04T21:33:19.394Z,0.38
2022-11-04T21:35:48.846Z,2.58
2022-11-04T21:38:17.320Z,0.40
2022-11-04T21:40:44.706Z,0.10
2022-11-04T21:43:12.307Z,0.32
2022-11-04T21:45:39.226Z,7.93
2022-11-04T21:48:06.167Z,3.20
2022-11-04T21:50:32.859Z,0.30
2022-11-04T21:52:59.579Z,0.40
2022-11-04T21:55:26.305Z,1.40
2022-11-04T21:57:52.997Z,0.60
2022-11-04T22:00:19.664Z,0.60
2022-11-04T22:02:52.628Z,1.45
2022-11-04T22:05:19.396Z,3.47
2022-11-04T22:08:04.741Z,0.70
2022-11-04T22:10:31.482Z,0.60
2022-11-04T22:12:58.105Z,14.10
2022-11-04T22:15:43.594Z,0.60
2022-11-04T22:18:10.344Z,1.15
2022-11-04T22:20:37.264Z,0.40
2022-11-04T22:23:04.359Z,0.20
2022-11-04T22:25:31.351Z,0.40
2022-11-04T22:27:58.109Z,1.33
2022-11-04T22:30:25.027Z,0.40
2022-11-04T22:32:52.598Z,0.35
2022-11-04T22:35:19.420Z,5.10
2022-11-04T22:37:46.065Z,0.30
2022-11-04T22:40:12.989Z,7.63
2022-11-04T22:42:40.111Z,3.45
2022-11-04T22:45:09.153Z,0.40
2022-11-04T22:47:37.912Z,0.38
2022-11-04T22:50:05.502Z,0.40
2022-11-04T22:52:32.145Z,0.40
2022-11-04T22:54:58.834Z,3.83
2022-11-04T22:57:25.586Z,5.00
2022-11-04T22:59:52.265Z,0.65
2022-11-04T23:02:19.273Z,5.25
2022-11-04T23:04:46.014Z,0.10
2022-11-04T23:07:12.676Z,0.52
2022-11-04T23:09:59.385Z,0.68
2022-11-04T23:12:44.598Z,0.15
2022-11-04T23:18:14.860Z,0.90
2022-11-04T23:20:41.503Z,0.28
2022-11-04T23:23:26.991Z,2.67
2022-11-04T23:25:53.703Z,0.20
2022-11-04T23:28:39.191Z,0.45
2022-11-04T23:31:05.948Z,0.20
2022-11-04T23:33:51.347Z,1.25
2022-11-04T23:36:36.722Z,0.20
2022-11-04T23:39:03.467Z,1.88
2022-11-04T23:41:48.724Z,0.20
2022-11-04T23:44:35.317Z,0.20
2022-11-04T23:47:20.682Z,1.40
2022-11-04T23:50:05.567Z,0.20
2022-11-04T23:52:55.755Z,2.80
2022-11-04T23:55:41.225Z,2.55
2022-11-04T23:58:27.709Z,0.40
